Time;durP1;ratioP1;P1;durP2;ratioP2;P2;SDS_P1;SDS_P2;PMS_P1;PMS_P2;Temp;Humidity;BMP_temperature;BMP_pressure;BME280_temperature;BME280_humidity;BME280_pressure;Samples;Min_cycle;Max_cycle;Signal;HPM_P1;HPM_P2
2022/12/09 00:02:04;;;;;;;17.37;11.20;;;;;;;;;;5064774;28;20229;-87
2022/12/09 00:04:31;;;;;;;18.63;12.50;;;;;;;;;;5056454;28;20226;-87
2022/12/09 00:06:58;;;;;;;18.70;12.17;;;;;;;;;;5092655;28;20243;-87
2022/12/09 00:09:25;;;;;;;21.23;12.93;;;;;;;;;;5095188;28;20205;-87
2022/12/09 00:11:52;;;;;;;17.40;11.43;;;;;;;;;;5092571;28;20751;-87
2022/12/09 00:14:21;;;;;;;18.47;12.57;;;;;;;;;;5073163;28;20258;-87
2022/12/09 00:16:49;;;;;;;21.40;12.63;;;;;;;;;;5074037;28;20239;-86
2022/12/09 00:19:16;;;;;;;18.70;12.07;;;;;;;;;;5074450;28;20197;-87
2022/12/09 00:21:43;;;;;;;19.43;11.77;;;;;;;;;;5074239;28;20720;-87
2022/12/09 00:24:12;;;;;;;18.60;11.67;;;;;;;;;;5074608;28;20235;-87
2022/12/09 00:26:39;;;;;;;22.10;12.83;;;;;;;;;;5073873;28;20255;-87
2022/12/09 00:29:06;;;;;;;21.17;12.23;;;;;;;;;;5074104;28;20201;-86
2022/12/09 00:31:36;;;;;;;16.60;11.90;;;;;;;;;;5073767;28;20709;-86
2022/12/09 00:34:05;;;;;;;24.17;12.83;;;;;;;;;;5074495;28;20202;-87
2022/12/09 00:36:32;;;;;;;17.83;12.27;;;;;;;;;;5074049;28;20244;-86
2022/12/09 00:38:59;;;;;;;20.27;12.47;;;;;;;;;;5074275;28;20213;-87
2022/12/09 00:41:27;;;;;;;21.67;11.70;;;;;;;;;;5073656;28;20279;-86
2022/12/09 00:43:54;;;;;;;17.43;11.30;;;;;;;;;;5073815;28;20593;-86
2022/12/09 00:46:21;;;;;;;17.53;12.20;;;;;;;;;;5065176;28;20592;-86
2022/12/09 00:48:49;;;;;;;17.30;12.03;;;;;;;;;;5054227;28;20213;-86
2022/12/09 00:51:17;;;;;;;21.97;11.87;;;;;;;;;;5053653;28;20249;-87
2022/12/09 00:53:46;;;;;;;21.53;13.07;;;;;;;;;;5059143;28;20202;-87
2022/12/09 00:56:13;;;;;;;19.03;11.97;;;;;;;;;;5064694;28;20252;-87
2022/12/09 00:58:40;;;;;;;19.27;13.50;;;;;;;;;;5065985;28;20212;-87
2022/12/09 01:01:07;;;;;;;18.57;12.47;;;;;;;;;;5059571;28;20249;-87
2022/12/09 01:03:34;;;;;;;19.93;11.97;;;;;;;;;;5054027;28;20194;-87
2022/12/09 01:06:07;;;;;;;19.87;12.23;;;;;;;;;;5053418;28;20249;-87
2022/12/09 01:08:34;;;;;;;17.70;10.70;;;;;;;;;;5070601;28;20596;-87
2022/12/09 01:11:01;;;;;;;17.67;12.10;;;;;;;;;;5073421;28;20237;-87
2022/12/09 01:13:28;;;;;;;16.77;11.90;;;;;;;;;;5054345;28;20201;-87
2022/12/09 01:15:56;;;;;;;17.67;12.27;;;;;;;;;;5053370;28;20238;-87
2022/12/09 01:18:23;;;;;;;17.73;12.00;;;;;;;;;;5070280;28;20201;-87
2022/12/09 01:20:56;;;;;;;16.67;11.77;;;;;;;;;;5069292;28;20248;-87
2022/12/09 01:23:25;;;;;;;16.43;11.27;;;;;;;;;;5056835;28;20194;-87
2022/12/09 01:25:52;;;;;;;18.60;11.17;;;;;;;;;;5052643;28;20732;-87
2022/12/09 01:28:19;;;;;;;22.30;12.83;;;;;;;;;;5053472;28;20206;-86
2022/12/09 01:30:47;;;;;;;17.43;12.10;;;;;;;;;;5065722;28;20711;-87
2022/12/09 01:33:14;;;;;;;21.90;14.27;;;;;;;;;;5072693;28;20216;-87
2022/12/09 01:35:41;;;;;;;19.27;11.67;;;;;;;;;;5059490;28;20228;-86
2022/12/09 01:38:08;;;;;;;19.40;12.63;;;;;;;;;;5066129;28;20567;-87
2022/12/09 01:40:37;;;;;;;16.90;11.63;;;;;;;;;;5072666;28;20228;-87
2022/12/09 01:43:04;;;;;;;19.00;12.93;;;;;;;;;;5057978;28;20212;-86
2022/12/09 01:45:41;;;;;;;13.87;10.73;;;;;;;;;;5073253;28;20690;-86
2022/12/09 01:48:12;;;;;;;18.87;11.90;;;;;;;;;;5072979;28;20208;-87
2022/12/09 01:50:40;;;;;;;17.67;11.10;;;;;;;;;;5071912;28;20743;-86
2022/12/09 01:53:08;;;;;;;19.90;12.33;;;;;;;;;;5061713;28;20669;-86
2022/12/09 01:55:36;;;;;;;23.57;13.57;;;;;;;;;;5052996;28;20225;-87
2022/12/09 01:58:04;;;;;;;18.03;11.77;;;;;;;;;;5059619;28;20576;-86
2022/12/09 02:00:31;;;;;;;17.83;11.40;;;;;;;;;;5085528;28;20228;-86
2022/12/09 02:03:00;;;;;;;17.50;11.43;;;;;;;;;;5072265;28;20228;-87
2022/12/09 02:05:39;;;;;;;16.77;12.47;;;;;;;;;;5083038;28;20236;-87
2022/12/09 02:08:07;;;;;;;17.70;10.97;;;;;;;;;;5078665;28;20228;-87
2022/12/09 02:10:36;;;;;;;15.80;11.10;;;;;;;;;;5072433;28;20236;-87
2022/12/09 02:13:12;;;;;;;17.80;11.87;;;;;;;;;;5072709;28;20689;-86
2022/12/09 02:15:42;;;;;;;17.83;12.03;;;;;;;;;;5072662;28;20228;-86
2022/12/09 02:18:12;;;;;;;17.03;11.20;;;;;;;;;;5073218;28;20197;-86
2022/12/09 02:20:41;;;;;;;14.67;10.50;;;;;;;;;;5072466;28;20236;-87
2022/12/09 02:23:12;;;;;;;14.90;10.27;;;;;;;;;;5073115;28;20571;-87
2022/12/09 02:25:42;;;;;;;16.10;10.37;;;;;;;;;;5053016;28;20238;-87
2022/12/09 02:28:16;;;;;;;20.93;11.77;;;;;;;;;;5061514;28;20202;-87
2022/12/09 02:30:48;;;;;;;15.67;10.50;;;;;;;;;;5052437;28;20237;-86
2022/12/09 02:33:35;;;;;;;16.17;10.37;;;;;;;;;;5052668;28;20187;-83
2022/12/09 02:36:06;;;;;;;16.17;10.33;;;;;;;;;;5054505;28;20229;-84
2022/12/09 02:38:33;;;;;;;18.23;11.30;;;;;;;;;;5073161;28;20220;-84
2022/12/09 02:41:02;;;;;;;15.33;10.60;;;;;;;;;;5054898;28;20241;-84
2022/12/09 02:43:31;;;;;;;16.70;10.40;;;;;;;;;;5055613;28;20217;-84
2022/12/09 02:45:59;;;;;;;19.67;11.20;;;;;;;;;;5054700;28;20238;-83
2022/12/09 02:48:28;;;;;;;16.83;9.83;;;;;;;;;;5075176;28;20205;-84
2022/12/09 02:50:57;;;;;;;16.43;9.90;;;;;;;;;;5074874;28;20236;-83
2022/12/09 02:53:26;;;;;;;19.00;11.03;;;;;;;;;;5056962;28;20205;-84
2022/12/09 02:55:54;;;;;;;16.77;11.53;;;;;;;;;;5058722;28;20232;-84
2022/12/09 02:58:21;;;;;;;17.33;11.13;;;;;;;;;;5064526;28;20199;-84
2022/12/09 03:00:48;;;;;;;15.47;10.40;;;;;;;;;;5070698;28;20234;-84
2022/12/09 03:03:17;;;;;;;15.80;11.03;;;;;;;;;;5074332;28;20201;-84
2022/12/09 03:05:50;;;;;;;17.17;11.33;;;;;;;;;;5073672;28;20235;-83
2022/12/09 03:08:22;;;;;;;15.17;10.70;;;;;;;;;;5067940;28;20654;-84
2022/12/09 03:10:55;;;;;;;19.70;11.20;;;;;;;;;;5060387;28;20232;-85
2022/12/09 03:13:27;;;;;;;16.80;10.03;;;;;;;;;;5075042;28;20194;-84
2022/12/09 03:15:58;;;;;;;18.93;10.87;;;;;;;;;;5074490;28;20237;-84
2022/12/09 03:18:27;;;;;;;16.70;11.13;;;;;;;;;;5055324;28;20206;-83
2022/12/09 03:20:55;;;;;;;14.97;9.50;;;;;;;;;;5054292;28;20581;-84
2022/12/09 03:23:24;;;;;;;13.70;9.50;;;;;;;;;;5054785;28;20209;-84
2022/12/09 03:25:52;;;;;;;14.10;10.00;;;;;;;;;;5054628;28;20603;-84
2022/12/09 03:28:22;;;;;;;16.63;11.27;;;;;;;;;;5054226;28;20685;-84
2022/12/09 03:30:49;;;;;;;15.63;10.43;;;;;;;;;;5067810;28;20256;-84
2022/12/09 03:33:18;;;;;;;13.83;9.83;;;;;;;;;;5058038;28;20209;-85
2022/12/09 03:35:47;;;;;;;13.37;9.47;;;;;;;;;;5074095;28;20582;-84
2022/12/09 03:38:16;;;;;;;13.00;10.13;;;;;;;;;;5074417;28;20205;-84
2022/12/09 03:40:44;;;;;;;15.03;11.27;;;;;;;;;;5067562;28;20237;-84
2022/12/09 03:43:14;;;;;;;12.93;9.63;;;;;;;;;;5060663;28;20212;-84
2022/12/09 03:45:42;;;;;;;16.07;11.03;;;;;;;;;;5073647;28;20233;-85
2022/12/09 03:48:10;;;;;;;16.40;10.03;;;;;;;;;;5073974;28;20209;-84
2022/12/09 03:50:41;;;;;;;16.67;9.80;;;;;;;;;;5063702;28;20237;-84
2022/12/09 03:53:11;;;;;;;11.70;9.07;;;;;;;;;;5067586;28;20197;-84
2022/12/09 03:55:40;;;;;;;12.13;9.13;;;;;;;;;;5063445;28;20236;-85
2022/12/09 03:58:09;;;;;;;13.93;9.93;;;;;;;;;;5073921;28;20508;-84
2022/12/09 04:00:37;;;;;;;18.37;9.53;;;;;;;;;;5070277;28;20229;-84
2022/12/09 04:03:05;;;;;;;14.97;9.47;;;;;;;;;;5081810;28;20201;-85
2022/12/09 04:05:32;;;;;;;12.53;9.43;;;;;;;;;;5093840;28;20243;-84
2022/12/09 04:08:00;;;;;;;15.63;8.83;;;;;;;;;;5078623;28;20209;-83
2022/12/09 04:10:27;;;;;;;14.43;9.67;;;;;;;;;;5073559;28;20283;-84
2022/12/09 04:12:54;;;;;;;12.07;8.97;;;;;;;;;;5073510;28;20225;-84
2022/12/09 04:15:21;;;;;;;14.07;9.17;;;;;;;;;;5072933;28;20204;-84
2022/12/09 04:17:48;;;;;;;12.63;8.97;;;;;;;;;;5073291;28;20206;-84
2022/12/09 04:20:16;;;;;;;12.33;9.27;;;;;;;;;;5072919;28;20219;-84
2022/12/09 04:22:43;;;;;;;13.30;9.30;;;;;;;;;;5073343;28;20232;-84
2022/12/09 04:25:10;;;;;;;12.83;9.83;;;;;;;;;;5073298;28;20225;-85
2022/12/09 04:27:38;;;;;;;12.93;9.47;;;;;;;;;;5073383;28;20201;-84
2022/12/09 04:30:05;;;;;;;14.77;9.90;;;;;;;;;;5073223;28;20219;-84
2022/12/09 04:32:33;;;;;;;13.83;9.80;;;;;;;;;;5073195;28;20243;-84
2022/12/09 04:35:00;;;;;;;14.73;9.63;;;;;;;;;;5073658;28;20250;-84
2022/12/09 04:37:28;;;;;;;12.03;9.10;;;;;;;;;;5070510;28;20236;-84
2022/12/09 04:39:55;;;;;;;13.97;9.90;;;;;;;;;;5058333;28;20201;-85
2022/12/09 04:42:22;;;;;;;14.83;9.30;;;;;;;;;;5073575;28;20251;-85
2022/12/09 04:44:49;;;;;;;14.27;9.30;;;;;;;;;;5072942;28;20711;-84
2022/12/09 04:47:16;;;;;;;14.77;8.80;;;;;;;;;;5072036;28;20881;-84
2022/12/09 04:49:43;;;;;;;13.43;9.17;;;;;;;;;;5072735;28;20570;-85
2022/12/09 04:52:11;;;;;;;15.43;9.70;;;;;;;;;;5064655;28;20726;-84
2022/12/09 04:54:39;;;;;;;14.27;9.90;;;;;;;;;;5062117;28;20663;-84
2022/12/09 04:57:06;;;;;;;12.63;8.80;;;;;;;;;;5072408;28;20232;-85
2022/12/09 04:59:33;;;;;;;13.77;9.70;;;;;;;;;;5072625;28;20210;-84
2022/12/09 05:02:00;;;;;;;14.87;9.57;;;;;;;;;;5053216;28;20248;-84
2022/12/09 05:04:27;;;;;;;12.63;8.87;;;;;;;;;;5058406;28;20219;-85
2022/12/09 05:06:54;;;;;;;12.53;9.40;;;;;;;;;;5071110;28;20366;-85
2022/12/09 05:09:21;;;;;;;15.93;9.93;;;;;;;;;;5070864;28;20234;-85
2022/12/09 05:11:50;;;;;;;11.47;9.17;;;;;;;;;;5064169;28;20605;-85
2022/12/09 05:14:17;;;;;;;14.13;9.07;;;;;;;;;;5052811;28;20241;-85
2022/12/09 05:16:45;;;;;;;14.63;8.63;;;;;;;;;;5052294;28;20235;-84
2022/12/09 05:19:12;;;;;;;13.10;9.03;;;;;;;;;;5052677;28;20212;-84
2022/12/09 05:21:39;;;;;;;13.43;8.83;;;;;;;;;;5051875;28;20240;-84
2022/12/09 05:24:06;;;;;;;13.23;9.17;;;;;;;;;;5052323;28;20714;-84
2022/12/09 05:26:33;;;;;;;12.40;9.43;;;;;;;;;;5066114;28;20637;-84
2022/12/09 05:29:02;;;;;;;13.53;9.30;;;;;;;;;;5059107;28;20284;-84
2022/12/09 05:31:29;;;;;;;14.83;9.63;;;;;;;;;;5051698;28;20251;-84
2022/12/09 05:33:56;;;;;;;14.73;9.30;;;;;;;;;;5058857;28;20203;-84
2022/12/09 05:36:24;;;;;;;14.00;9.63;;;;;;;;;;5071783;28;20235;-84
2022/12/09 05:38:51;;;;;;;14.10;9.27;;;;;;;;;;5072022;28;20215;-85
2022/12/09 05:41:19;;;;;;;14.40;10.00;;;;;;;;;;5056400;28;20240;-85
2022/12/09 05:43:46;;;;;;;16.33;9.60;;;;;;;;;;5052154;28;20218;-84
2022/12/09 05:48:56;;;;;;;14.87;9.47;;;;;;;;;;5052703;28;20288;-85
2022/12/09 05:51:24;;;;;;;12.23;8.87;;;;;;;;;;5063207;28;20242;-84
2022/12/09 05:53:51;;;;;;;12.50;9.40;;;;;;;;;;5056597;28;20231;-85
2022/12/09 05:56:18;;;;;;;13.10;9.00;;;;;;;;;;5051507;28;20238;-85
2022/12/09 05:58:45;;;;;;;13.27;9.03;;;;;;;;;;5051731;28;20214;-85
2022/12/09 06:01:14;;;;;;;11.73;9.50;;;;;;;;;;5051276;28;20243;-85
2022/12/09 06:03:41;;;;;;;16.20;9.57;;;;;;;;;;5052103;28;20588;-85
2022/12/09 06:06:09;;;;;;;15.80;10.20;;;;;;;;;;5051719;28;20243;-85
2022/12/09 06:08:36;;;;;;;14.33;10.10;;;;;;;;;;5059571;28;20195;-85
2022/12/09 06:11:03;;;;;;;14.80;9.77;;;;;;;;;;5069747;28;20256;-85
2022/12/09 06:13:30;;;;;;;15.00;9.83;;;;;;;;;;5069683;28;20207;-86
2022/12/09 06:16:02;;;;;;;14.27;9.93;;;;;;;;;;5071957;28;20234;-86
2022/12/09 06:18:30;;;;;;;13.97;9.97;;;;;;;;;;5072733;28;20191;-87
2022/12/09 06:20:58;;;;;;;18.07;10.33;;;;;;;;;;5072059;28;20544;-85
2022/12/09 06:23:25;;;;;;;18.23;10.20;;;;;;;;;;5088712;28;20199;-83
2022/12/09 06:25:52;;;;;;;14.07;10.03;;;;;;;;;;5091131;28;20327;-85
2022/12/09 06:28:19;;;;;;;15.93;10.57;;;;;;;;;;5076672;28;20560;-84
2022/12/09 06:30:46;;;;;;;17.17;10.53;;;;;;;;;;5070998;28;20768;-84
2022/12/09 06:33:13;;;;;;;17.83;11.50;;;;;;;;;;5071480;28;20234;-85
2022/12/09 06:35:41;;;;;;;21.10;12.40;;;;;;;;;;5071237;28;20682;-85
2022/12/09 06:38:09;;;;;;;20.27;12.03;;;;;;;;;;5071308;28;20213;-83
2022/12/09 06:40:36;;;;;;;19.10;11.33;;;;;;;;;;5070994;28;20233;-84
2022/12/09 06:43:03;;;;;;;20.23;11.87;;;;;;;;;;5071475;28;20250;-84
2022/12/09 06:45:30;;;;;;;21.40;12.13;;;;;;;;;;5070971;28;20230;-84
2022/12/09 06:47:57;;;;;;;20.50;11.63;;;;;;;;;;5071475;28;20187;-84
2022/12/09 06:50:24;;;;;;;23.77;12.30;;;;;;;;;;5071121;28;20234;-85
2022/12/09 06:52:52;;;;;;;19.23;12.80;;;;;;;;;;5071879;28;20230;-84
2022/12/09 06:55:19;;;;;;;27.20;13.83;;;;;;;;;;5071170;28;20218;-85
2022/12/09 06:57:47;;;;;;;21.57;13.37;;;;;;;;;;5072398;28;20214;-87
2022/12/09 07:00:14;;;;;;;22.07;13.77;;;;;;;;;;5071881;28;20209;-84
2022/12/09 07:02:41;;;;;;;32.13;15.30;;;;;;;;;;5071628;28;20595;-83
2022/12/09 07:05:09;;;;;;;24.80;14.63;;;;;;;;;;5071149;28;20219;-84
2022/12/09 07:07:36;;;;;;;26.97;14.47;;;;;;;;;;5071104;28;20697;-83
2022/12/09 07:10:05;;;;;;;20.57;13.43;;;;;;;;;;5070564;28;20217;-83
2022/12/09 07:12:32;;;;;;;25.83;14.40;;;;;;;;;;5071306;28;20235;-84
2022/12/09 07:14:59;;;;;;;24.90;14.90;;;;;;;;;;5071120;28;20205;-83
2022/12/09 07:17:26;;;;;;;27.77;13.97;;;;;;;;;;5070669;28;20232;-87
2022/12/09 07:19:53;;;;;;;22.17;15.20;;;;;;;;;;5070866;28;20522;-85
2022/12/09 07:22:20;;;;;;;24.63;13.70;;;;;;;;;;5070996;28;20239;-85
2022/12/09 07:24:47;;;;;;;22.23;13.53;;;;;;;;;;5072171;28;20231;-83
2022/12/09 07:27:15;;;;;;;22.97;13.70;;;;;;;;;;5074117;28;20238;-84
2022/12/09 07:29:43;;;;;;;22.93;14.20;;;;;;;;;;5074197;28;20210;-83
2022/12/09 07:32:10;;;;;;;23.13;13.13;;;;;;;;;;5073819;28;20224;-85
2022/12/09 07:34:37;;;;;;;27.60;14.47;;;;;;;;;;5074007;28;20213;-84
2022/12/09 07:37:12;;;;;;;21.47;13.40;;;;;;;;;;5070816;28;20228;-88
2022/12/09 07:39:39;;;;;;;18.30;13.07;;;;;;;;;;5065017;28;20288;-84
2022/12/09 07:42:06;;;;;;;26.70;14.00;;;;;;;;;;5061635;28;20696;-85
2022/12/09 07:44:34;;;;;;;30.10;13.93;;;;;;;;;;5069943;28;20197;-85
2022/12/09 07:47:03;;;;;;;20.13;13.23;;;;;;;;;;5072944;28;20250;-86
2022/12/09 07:49:30;;;;;;;21.20;13.00;;;;;;;;;;5074920;28;20206;-86
2022/12/09 07:51:57;;;;;;;23.80;12.53;;;;;;;;;;5073650;28;20239;-86
2022/12/09 07:54:24;;;;;;;20.77;13.53;;;;;;;;;;5074419;28;20202;-86
2022/12/09 07:56:51;;;;;;;20.83;12.37;;;;;;;;;;5073914;28;20234;-86
2022/12/09 07:59:18;;;;;;;22.53;12.83;;;;;;;;;;5074477;28;20186;-86
2022/12/09 08:01:47;;;;;;;23.33;13.17;;;;;;;;;;5073851;28;20240;-86
2022/12/09 08:04:16;;;;;;;20.23;12.63;;;;;;;;;;5074622;28;20246;-86
2022/12/09 08:06:43;;;;;;;20.83;12.57;;;;;;;;;;5073543;28;20243;-86
2022/12/09 08:09:12;;;;;;;24.77;13.70;;;;;;;;;;5074214;28;20208;-87
2022/12/09 08:11:40;;;;;;;16.67;11.53;;;;;;;;;;5071037;28;20240;-85
2022/12/09 08:14:10;;;;;;;21.60;13.47;;;;;;;;;;5073609;28;20218;-86
2022/12/09 08:16:37;;;;;;;18.50;12.27;;;;;;;;;;5075253;28;20223;-86
2022/12/09 08:19:04;;;;;;;20.20;13.30;;;;;;;;;;5066648;28;20223;-85
2022/12/09 08:21:33;;;;;;;23.67;12.93;;;;;;;;;;5053733;28;20248;-85
2022/12/09 08:24:01;;;;;;;24.60;13.80;;;;;;;;;;5054125;28;20725;-86
2022/12/09 08:26:31;;;;;;;30.50;14.70;;;;;;;;;;5053719;28;20259;-86
2022/12/09 08:28:58;;;;;;;24.43;13.07;;;;;;;;;;5053539;28;20595;-86
2022/12/09 08:31:26;;;;;;;22.67;13.97;;;;;;;;;;5052894;28;20246;-86
2022/12/09 08:33:54;;;;;;;21.97;13.87;;;;;;;;;;5073138;28;20235;-85
2022/12/09 08:36:22;;;;;;;21.90;14.00;;;;;;;;;;5073202;28;20241;-86
2022/12/09 08:38:50;;;;;;;24.43;15.47;;;;;;;;;;5073621;28;20674;-86
2022/12/09 08:41:19;;;;;;;24.73;15.20;;;;;;;;;;5073298;28;20251;-86
2022/12/09 08:43:46;;;;;;;28.27;15.43;;;;;;;;;;5055141;28;20206;-86
2022/12/09 08:46:14;;;;;;;24.27;14.87;;;;;;;;;;5053196;28;20239;-85
2022/12/09 08:48:42;;;;;;;21.97;14.67;;;;;;;;;;5053885;28;20206;-86
2022/12/09 08:51:10;;;;;;;27.63;15.60;;;;;;;;;;5053485;28;20243;-86
2022/12/09 08:53:37;;;;;;;28.10;15.27;;;;;;;;;;5069982;28;20222;-87
2022/12/09 08:56:10;;;;;;;23.30;15.20;;;;;;;;;;5088519;28;20242;-85
2022/12/09 08:58:37;;;;;;;26.27;15.47;;;;;;;;;;5072821;28;20217;-86
2022/12/09 09:01:04;;;;;;;27.40;14.77;;;;;;;;;;5073036;28;20239;-91
2022/12/09 09:03:31;;;;;;;29.80;16.17;;;;;;;;;;5073145;28;20211;-85
2022/12/09 09:06:01;;;;;;;28.40;16.53;;;;;;;;;;5072501;28;20235;-85
2022/12/09 09:08:28;;;;;;;23.30;14.93;;;;;;;;;;5073029;28;20199;-86
2022/12/09 09:10:55;;;;;;;28.97;16.30;;;;;;;;;;5072236;28;20239;-86
2022/12/09 09:13:23;;;;;;;26.93;16.03;;;;;;;;;;5073147;28;20260;-85
2022/12/09 09:15:50;;;;;;;28.83;16.73;;;;;;;;;;5072470;28;20232;-85
2022/12/09 09:18:17;;;;;;;32.93;18.40;;;;;;;;;;5072707;28;20210;-85
2022/12/09 09:20:46;;;;;;;29.83;17.30;;;;;;;;;;5065801;28;20230;-85
2022/12/09 09:23:13;;;;;;;36.57;18.67;;;;;;;;;;5053047;28;20211;-85
2022/12/09 09:25:41;;;;;;;33.47;17.93;;;;;;;;;;5052613;28;20233;-86
2022/12/09 09:28:08;;;;;;;29.63;17.00;;;;;;;;;;5053476;28;20259;-86
2022/12/09 09:30:37;;;;;;;33.30;18.37;;;;;;;;;;5052101;28;20227;-85
2022/12/09 09:33:04;;;;;;;36.13;18.17;;;;;;;;;;5053168;28;20669;-85
2022/12/09 09:35:31;;;;;;;31.33;16.70;;;;;;;;;;5052169;28;20232;-88
2022/12/09 09:37:58;;;;;;;33.57;16.67;;;;;;;;;;5052445;28;20209;-84
2022/12/09 09:40:26;;;;;;;37.37;19.17;;;;;;;;;;5069594;28;20234;-84
2022/12/09 09:42:55;;;;;;;34.43;18.67;;;;;;;;;;5072112;28;20577;-85
2022/12/09 09:45:23;;;;;;;33.73;18.00;;;;;;;;;;5069733;28;20250;-85
2022/12/09 09:47:54;;;;;;;30.30;15.73;;;;;;;;;;5053409;28;20225;-85
2022/12/09 09:50:26;;;;;;;32.03;18.20;;;;;;;;;;5051518;28;20202;-84
2022/12/09 09:52:54;;;;;;;31.00;18.07;;;;;;;;;;5051589;28;20727;-84
2022/12/09 09:55:27;;;;;;;37.00;18.83;;;;;;;;;;5051411;28;20209;-84
2022/12/09 09:57:58;;;;;;;34.57;18.67;;;;;;;;;;5051769;28;20787;-84
2022/12/09 10:00:27;;;;;;;34.47;18.80;;;;;;;;;;5051565;28;20232;-85
2022/12/09 10:03:00;;;;;;;35.23;18.80;;;;;;;;;;5051588;28;20720;-84
2022/12/09 10:05:30;;;;;;;40.83;19.47;;;;;;;;;;5051695;28;20235;-84
2022/12/09 10:07:59;;;;;;;42.87;20.20;;;;;;;;;;5051683;28;20227;-84
2022/12/09 10:10:32;;;;;;;34.73;18.13;;;;;;;;;;5051366;28;20235;-84
2022/12/09 10:13:05;;;;;;;35.20;19.80;;;;;;;;;;5052072;28;20343;-84
2022/12/09 10:15:35;;;;;;;36.60;18.53;;;;;;;;;;5051402;28;20226;-84
2022/12/09 10:18:07;;;;;;;38.57;19.93;;;;;;;;;;5051801;28;20576;-84
2022/12/09 10:20:35;;;;;;;43.27;22.23;;;;;;;;;;5051121;28;20232;-84
2022/12/09 10:23:03;;;;;;;43.50;22.10;;;;;;;;;;5051630;28;20233;-84
2022/12/09 10:25:32;;;;;;;47.50;24.43;;;;;;;;;;5067597;28;20258;-86
2022/12/09 10:28:01;;;;;;;47.50;22.00;;;;;;;;;;5071821;28;20214;-86
2022/12/09 10:30:29;;;;;;;41.40;23.27;;;;;;;;;;5068803;28;20709;-86
2022/12/09 10:32:56;;;;;;;49.80;22.63;;;;;;;;;;5052127;28;20240;-86
2022/12/09 10:35:25;;;;;;;44.67;23.07;;;;;;;;;;5051719;28;20720;-86
2022/12/09 10:37:53;;;;;;;49.20;23.67;;;;;;;;;;5052040;28;20205;-85
2022/12/09 10:40:23;;;;;;;47.27;22.50;;;;;;;;;;5052000;28;20220;-88
2022/12/09 10:45:42;;;;;;;45.60;23.43;;;;;;;;;;5070947;28;20234;-84
2022/12/09 10:48:19;;;;;;;48.57;25.10;;;;;;;;;;5067826;28;20227;-84
2022/12/09 10:50:48;;;;;;;51.50;24.17;;;;;;;;;;5081415;28;20290;-86
2022/12/09 10:53:16;;;;;;;49.03;22.20;;;;;;;;;;5060306;28;20249;-84
2022/12/09 10:55:44;;;;;;;47.03;24.03;;;;;;;;;;5054111;28;20706;-84
2022/12/09 10:58:15;;;;;;;45.00;23.00;;;;;;;;;;5055067;28;20193;-84
2022/12/09 11:00:42;;;;;;;42.53;21.33;;;;;;;;;;5082781;28;20225;-84
2022/12/09 11:03:24;;;;;;;48.20;23.27;;;;;;;;;;5086991;28;20201;-84
2022/12/09 11:05:57;;;;;;;39.80;20.73;;;;;;;;;;5074724;28;20258;-84
2022/12/09 11:08:24;;;;;;;36.47;19.83;;;;;;;;;;5074568;28;20225;-84
2022/12/09 11:10:51;;;;;;;37.03;20.47;;;;;;;;;;5074492;28;20228;-83
2022/12/09 11:13:19;;;;;;;42.67;20.87;;;;;;;;;;5074284;28;20300;-83
2022/12/09 11:15:50;;;;;;;41.13;20.53;;;;;;;;;;5073784;28;20286;-83
2022/12/09 11:18:19;;;;;;;37.87;21.10;;;;;;;;;;5074419;28;20850;-84
2022/12/09 11:20:54;;;;;;;40.20;21.03;;;;;;;;;;5073640;28;20237;-83
2022/12/09 11:23:23;;;;;;;38.40;20.77;;;;;;;;;;5074400;28;20205;-83
2022/12/09 11:25:54;;;;;;;35.30;20.63;;;;;;;;;;5073580;28;20713;-83
2022/12/09 11:28:25;;;;;;;36.57;19.50;;;;;;;;;;5073728;28;20229;-83
2022/12/09 11:30:54;;;;;;;32.43;18.80;;;;;;;;;;5073542;28;20233;-83
2022/12/09 11:33:25;;;;;;;26.70;17.13;;;;;;;;;;5074296;28;20575;-83
2022/12/09 11:35:54;;;;;;;30.07;18.63;;;;;;;;;;5073481;28;20728;-83
2022/12/09 11:38:30;;;;;;;26.73;16.97;;;;;;;;;;5073729;28;20571;-84
2022/12/09 11:41:00;;;;;;;25.27;16.60;;;;;;;;;;5073692;28;20230;-84
2022/12/09 11:43:31;;;;;;;24.37;15.90;;;;;;;;;;5073855;28;20193;-83
2022/12/09 11:45:58;;;;;;;24.57;16.83;;;;;;;;;;5072011;28;20597;-82
2022/12/09 11:48:28;;;;;;;19.33;13.63;;;;;;;;;;5071445;28;20221;-83
2022/12/09 11:50:55;;;;;;;22.57;13.73;;;;;;;;;;5070421;28;20229;-83
2022/12/09 11:53:27;;;;;;;20.23;13.53;;;;;;;;;;5072130;28;20205;-84
2022/12/09 11:55:59;;;;;;;16.90;12.73;;;;;;;;;;5071704;28;20237;-83
2022/12/09 11:58:27;;;;;;;19.20;12.77;;;;;;;;;;5072647;28;20190;-86
2022/12/09 12:00:57;;;;;;;16.80;11.43;;;;;;;;;;5072670;28;20323;-85
2022/12/09 12:03:26;;;;;;;18.73;12.97;;;;;;;;;;5072322;28;20209;-85
2022/12/09 12:05:54;;;;;;;18.47;12.23;;;;;;;;;;5070269;28;20752;-83
2022/12/09 12:08:25;;;;;;;16.93;11.53;;;;;;;;;;5071417;28;20217;-83
2022/12/09 12:10:57;;;;;;;16.80;11.53;;;;;;;;;;5070084;28;20307;-84
2022/12/09 12:13:28;;;;;;;20.27;12.20;;;;;;;;;;5071569;28;20206;-83
2022/12/09 12:15:59;;;;;;;14.37;10.23;;;;;;;;;;5070920;28;20238;-83
2022/12/09 12:18:30;;;;;;;15.13;9.83;;;;;;;;;;5072546;28;20190;-83
2022/12/09 12:21:03;;;;;;;13.13;9.50;;;;;;;;;;5070728;28;20716;-83
2022/12/09 12:23:35;;;;;;;10.80;8.97;;;;;;;;;;5071738;28;20688;-83
2022/12/09 12:26:04;;;;;;;12.77;9.43;;;;;;;;;;5070387;28;20701;-83
2022/12/09 12:28:49;;;;;;;13.20;9.97;;;;;;;;;;5071615;28;20245;-83
2022/12/09 12:31:22;;;;;;;14.33;9.87;;;;;;;;;;5070544;28;20733;-83
2022/12/09 12:33:55;;;;;;;13.33;9.40;;;;;;;;;;5071518;28;20205;-83
2022/12/09 12:36:27;;;;;;;11.37;9.00;;;;;;;;;;5070805;28;20228;-83
2022/12/09 12:39:02;;;;;;;14.30;9.17;;;;;;;;;;5070244;28;20202;-82
2022/12/09 12:41:32;;;;;;;12.77;8.80;;;;;;;;;;5070143;28;20231;-83
2022/12/09 12:46:55;;;;;;;16.93;9.63;;;;;;;;;;5070789;28;20232;-84
2022/12/09 12:49:32;;;;;;;13.63;8.97;;;;;;;;;;5069842;28;20706;-80
2022/12/09 12:52:03;;;;;;;13.13;8.83;;;;;;;;;;5069094;28;20234;-80
2022/12/09 12:54:36;;;;;;;11.60;8.87;;;;;;;;;;5069375;28;20229;-81
2022/12/09 12:57:08;;;;;;;13.73;9.57;;;;;;;;;;5069372;28;20232;-81
2022/12/09 12:59:41;;;;;;;12.77;8.57;;;;;;;;;;5069863;28;20206;-81
2022/12/09 13:02:16;;;;;;;13.43;8.90;;;;;;;;;;5070593;28;20281;-81
2022/12/09 13:04:45;;;;;;;10.63;8.40;;;;;;;;;;5070981;28;20208;-81
2022/12/09 13:07:22;;;;;;;13.70;8.60;;;;;;;;;;5069376;28;20221;-81
2022/12/09 13:09:52;;;;;;;11.80;9.50;;;;;;;;;;5069453;28;20213;-81
2022/12/09 13:12:52;;;;;;;14.50;9.40;;;;;;;;;;5071567;28;20229;-84
2022/12/09 13:15:13;;;;;;;14.70;9.80;;;;;;;;;;5071798;28;20243;-84
2022/12/09 13:17:40;;;;;;;11.50;8.60;;;;;;;;;;5073159;28;20192;-85
2022/12/09 13:20:12;;;;;;;13.10;9.07;;;;;;;;;;5072000;28;20213;-84
2022/12/09 13:22:44;;;;;;;13.23;9.60;;;;;;;;;;5072067;28;20234;-86
2022/12/09 13:25:16;;;;;;;14.93;8.73;;;;;;;;;;5073811;28;20208;-87
2022/12/09 13:27:45;;;;;;;12.07;8.50;;;;;;;;;;5076151;28;20216;-86
2022/12/09 13:30:20;;;;;;;15.33;10.07;;;;;;;;;;5072581;28;20219;-87
2022/12/09 13:33:04;;;;;;;16.43;10.20;;;;;;;;;;5072069;28;20638;-83
2022/12/09 13:35:34;;;;;;;14.43;10.30;;;;;;;;;;5073376;28;20232;-85
2022/12/09 13:38:01;;;;;;;13.30;10.20;;;;;;;;;;5072015;28;20201;-85
2022/12/09 13:40:30;;;;;;;16.03;11.03;;;;;;;;;;5070471;28;20244;-86
2022/12/09 13:43:04;;;;;;;13.27;9.50;;;;;;;;;;5073685;28;20243;-86
2022/12/09 13:45:36;;;;;;;13.50;10.27;;;;;;;;;;5071237;28;20233;-87
2022/12/09 13:48:06;;;;;;;17.13;10.87;;;;;;;;;;5071551;28;20224;-84
2022/12/09 13:50:37;;;;;;;15.90;10.17;;;;;;;;;;5072303;28;20227;-88
2022/12/09 13:53:06;;;;;;;17.43;11.40;;;;;;;;;;5075261;28;20292;-88
2022/12/09 13:55:39;;;;;;;14.77;11.20;;;;;;;;;;5074482;28;20229;-88
2022/12/09 13:58:35;;;;;;;14.30;9.83;;;;;;;;;;5072925;28;20719;-88
2022/12/09 14:01:13;;;;;;;14.27;10.30;;;;;;;;;;5023976;28;20229;-88
2022/12/09 14:03:46;;;;;;;14.73;10.43;;;;;;;;;;5070372;28;20204;-88
2022/12/09 14:06:18;;;;;;;13.60;10.23;;;;;;;;;;5070043;28;20229;-89
2022/12/09 14:08:47;;;;;;;14.27;10.23;;;;;;;;;;5069964;28;20231;-87
2022/12/09 14:11:33;;;;;;;14.13;10.27;;;;;;;;;;5072811;28;20232;-87
2022/12/09 14:14:33;;;;;;;13.27;9.73;;;;;;;;;;5071236;28;20202;-82
2022/12/09 14:17:03;;;;;;;17.60;10.23;;;;;;;;;;5067975;28;20599;-81
2022/12/09 14:19:50;;;;;;;16.17;9.77;;;;;;;;;;5068570;28;20204;-82
2022/12/09 14:22:33;;;;;;;12.43;9.57;;;;;;;;;;5068516;28;20236;-82
2022/12/09 14:25:15;;;;;;;13.00;10.07;;;;;;;;;;5070094;28;20202;-82
2022/12/09 14:28:02;;;;;;;13.10;9.10;;;;;;;;;;5067545;28;20225;-82
2022/12/09 14:30:50;;;;;;;14.67;9.97;;;;;;;;;;5069054;28;20573;-82
2022/12/09 14:33:23;;;;;;;13.80;9.50;;;;;;;;;;5070368;28;20199;-83
2022/12/09 14:35:51;;;;;;;14.17;9.50;;;;;;;;;;5073196;28;20681;-83
2022/12/09 14:38:23;;;;;;;16.73;9.30;;;;;;;;;;5074390;28;20292;-84
2022/12/09 14:40:57;;;;;;;14.17;8.80;;;;;;;;;;5073275;28;20300;-85
2022/12/09 14:43:43;;;;;;;14.10;9.27;;;;;;;;;;5072483;28;20216;-85